Little Mackinaw, Illinois
Current Conditions -  °F | °C
As of 6:15 AM on Friday 21 Nov 2014 (Local Time) from KAAA Reporting Station
Clear Clear  
Wind Chill: -11°   Ceiling: Unl
Heat Index: -11°   Visibility: 10mi
Dew Point: -15°   Wind: 0mph
Humidity: 78%   Direction: NA
Pressure: 30.44"   Gusts: NA
Location:  40.4411°N, 89.3259°W
Report Text: KAAA 211215Z AUTO 00000KT 10SM CLR M11/M14 A3044 RMK AO2 T11131145
Loading
Personal Weather Stations






























Interactive Weather Map New forecast layout! Learn more

10-Day Weather Forecast

Advertisements
Track Severe Weather on mobile